Terminal Aerodrome Forecast
Issued by NWS

Home | Current Version | Previous Version | Text Only | Print | Product List | Glossary On
Versions: 1 2 3 4 5 6 7 8 9 10 11 12 13 14 15 16
000
FTUS42 TJSJ 280500 AAA
TAFJPS
TAF AMD
TJPS 280523Z 2805/2824 05006KT P6SM FEW030
     FM281500 13012KT P6SM FEW030 SCT060
     FM282200 08008KT P6SM SCT030=

USA.gov is the U.S. government's official web portal to all federal, state and local government web resources and services.